sensor_id;sensor_type;location;lat;lon;timestamp;P1;durP1;ratioP1;P2;durP2;ratioP2
28629;SDS011;15817;42.130;24.762;2024-02-16T00:01:44;7.38;;;3.50;;
28629;SDS011;15817;42.130;24.762;2024-02-16T00:04:56;5.25;;;3.22;;
28629;SDS011;15817;42.130;24.762;2024-02-16T00:07:24;4.95;;;2.88;;
28629;SDS011;15817;42.130;24.762;2024-02-16T00:09:53;4.50;;;3.28;;
28629;SDS011;15817;42.130;24.762;2024-02-16T00:12:22;4.60;;;3.78;;
28629;SDS011;15817;42.130;24.762;2024-02-16T00:14:53;5.85;;;3.33;;
28629;SDS011;15817;42.130;24.762;2024-02-16T00:17:21;4.38;;;2.90;;
28629;SDS011;15817;42.130;24.762;2024-02-16T00:20:04;2.90;;;2.50;;
28629;SDS011;15817;42.130;24.762;2024-02-16T00:22:34;4.78;;;3.15;;
28629;SDS011;15817;42.130;24.762;2024-02-16T00:25:00;4.80;;;3.42;;
28629;SDS011;15817;42.130;24.762;2024-02-16T00:27:42;3.65;;;3.00;;
28629;SDS011;15817;42.130;24.762;2024-02-16T00:30:15;5.88;;;3.50;;
28629;SDS011;15817;42.130;24.762;2024-02-16T00:32:50;7.45;;;3.95;;
28629;SDS011;15817;42.130;24.762;2024-02-16T00:35:26;12.80;;;4.40;;
28629;SDS011;15817;42.130;24.762;2024-02-16T00:38:08;7.68;;;3.58;;
28629;SDS011;15817;42.130;24.762;2024-02-16T00:40:40;3.65;;;3.10;;
28629;SDS011;15817;42.130;24.762;2024-02-16T00:43:47;6.85;;;3.00;;
28629;SDS011;15817;42.130;24.762;2024-02-16T00:46:43;7.38;;;3.65;;
28629;SDS011;15817;42.130;24.762;2024-02-16T00:49:26;14.40;;;3.85;;
28629;SDS011;15817;42.130;24.762;2024-02-16T00:51:54;13.82;;;4.13;;
28629;SDS011;15817;42.130;24.762;2024-02-16T00:54:29;8.27;;;3.35;;
28629;SDS011;15817;42.130;24.762;2024-02-16T00:56:55;12.70;;;3.78;;
28629;SDS011;15817;42.130;24.762;2024-02-16T00:59:30;7.88;;;3.20;;
28629;SDS011;15817;42.130;24.762;2024-02-16T01:02:02;7.30;;;3.25;;
28629;SDS011;15817;42.130;24.762;2024-02-16T01:04:30;6.60;;;3.53;;
28629;SDS011;15817;42.130;24.762;2024-02-16T01:07:18;7.22;;;3.45;;
28629;SDS011;15817;42.130;24.762;2024-02-16T01:09:55;4.38;;;3.22;;
28629;SDS011;15817;42.130;24.762;2024-02-16T01:12:33;6.68;;;3.42;;
28629;SDS011;15817;42.130;24.762;2024-02-16T01:15:01;8.55;;;3.55;;
28629;SDS011;15817;42.130;24.762;2024-02-16T01:17:37;8.82;;;3.50;;
28629;SDS011;15817;42.130;24.762;2024-02-16T01:20:05;6.13;;;3.70;;
28629;SDS011;15817;42.130;24.762;2024-02-16T01:22:59;5.55;;;3.33;;
28629;SDS011;15817;42.130;24.762;2024-02-16T01:25:35;5.18;;;3.35;;
28629;SDS011;15817;42.130;24.762;2024-02-16T01:28:13;4.43;;;2.67;;
28629;SDS011;15817;42.130;24.762;2024-02-16T01:30:53;5.72;;;3.33;;
28629;SDS011;15817;42.130;24.762;2024-02-16T01:33:21;4.22;;;2.97;;
28629;SDS011;15817;42.130;24.762;2024-02-16T01:35:52;4.43;;;3.10;;
28629;SDS011;15817;42.130;24.762;2024-02-16T01:38:26;3.40;;;3.00;;
28629;SDS011;15817;42.130;24.762;2024-02-16T01:40:59;3.60;;;2.83;;
28629;SDS011;15817;42.130;24.762;2024-02-16T01:43:34;6.07;;;2.95;;
28629;SDS011;15817;42.130;24.762;2024-02-16T01:46:07;5.07;;;3.50;;
28629;SDS011;15817;42.130;24.762;2024-02-16T01:48:38;4.43;;;3.13;;
28629;SDS011;15817;42.130;24.762;2024-02-16T01:51:21;4.05;;;3.10;;
28629;SDS011;15817;42.130;24.762;2024-02-16T01:53:50;4.60;;;3.10;;
28629;SDS011;15817;42.130;24.762;2024-02-16T01:56:27;6.22;;;3.50;;
28629;SDS011;15817;42.130;24.762;2024-02-16T01:58:59;3.58;;;2.75;;
28629;SDS011;15817;42.130;24.762;2024-02-16T02:01:33;4.53;;;3.33;;
28629;SDS011;15817;42.130;24.762;2024-02-16T02:04:08;6.85;;;3.40;;
28629;SDS011;15817;42.130;24.762;2024-02-16T02:06:42;5.75;;;3.63;;
28629;SDS011;15817;42.130;24.762;2024-02-16T02:09:12;6.35;;;3.72;;
28629;SDS011;15817;42.130;24.762;2024-02-16T02:12:01;9.18;;;4.07;;
28629;SDS011;15817;42.130;24.762;2024-02-16T02:14:37;5.45;;;3.25;;
28629;SDS011;15817;42.130;24.762;2024-02-16T02:17:06;5.93;;;4.43;;
28629;SDS011;15817;42.130;24.762;2024-02-16T02:19:43;6.95;;;3.83;;
28629;SDS011;15817;42.130;24.762;2024-02-16T02:22:18;7.30;;;3.38;;
28629;SDS011;15817;42.130;24.762;2024-02-16T02:24:54;10.20;;;4.55;;
28629;SDS011;15817;42.130;24.762;2024-02-16T02:27:28;5.32;;;3.78;;
28629;SDS011;15817;42.130;24.762;2024-02-16T02:30:04;6.85;;;3.90;;
28629;SDS011;15817;42.130;24.762;2024-02-16T02:32:49;4.63;;;3.20;;
28629;SDS011;15817;42.130;24.762;2024-02-16T02:35:23;5.75;;;3.28;;
28629;SDS011;15817;42.130;24.762;2024-02-16T02:37:54;6.00;;;3.70;;
28629;SDS011;15817;42.130;24.762;2024-02-16T02:40:36;4.65;;;3.10;;
28629;SDS011;15817;42.130;24.762;2024-02-16T02:43:02;6.53;;;3.20;;
28629;SDS011;15817;42.130;24.762;2024-02-16T02:45:31;7.60;;;3.78;;
28629;SDS011;15817;42.130;24.762;2024-02-16T02:48:06;5.68;;;3.47;;
28629;SDS011;15817;42.130;24.762;2024-02-16T02:50:35;6.45;;;3.47;;
28629;SDS011;15817;42.130;24.762;2024-02-16T02:53:11;9.13;;;3.70;;
28629;SDS011;15817;42.130;24.762;2024-02-16T02:55:40;5.38;;;3.38;;
28629;SDS011;15817;42.130;24.762;2024-02-16T02:58:19;7.13;;;3.40;;
28629;SDS011;15817;42.130;24.762;2024-02-16T03:00:50;7.00;;;3.85;;
28629;SDS011;15817;42.130;24.762;2024-02-16T03:03:24;4.90;;;3.60;;
28629;SDS011;15817;42.130;24.762;2024-02-16T03:05:59;7.70;;;3.83;;
28629;SDS011;15817;42.130;24.762;2024-02-16T03:08:30;5.47;;;3.90;;
28629;SDS011;15817;42.130;24.762;2024-02-16T03:11:08;5.05;;;3.83;;
28629;SDS011;15817;42.130;24.762;2024-02-16T03:13:43;6.75;;;3.80;;
28629;SDS011;15817;42.130;24.762;2024-02-16T03:16:17;8.15;;;3.88;;
28629;SDS011;15817;42.130;24.762;2024-02-16T03:18:43;6.05;;;3.97;;
28629;SDS011;15817;42.130;24.762;2024-02-16T03:21:17;6.75;;;3.80;;
28629;SDS011;15817;42.130;24.762;2024-02-16T03:23:45;5.82;;;3.47;;
28629;SDS011;15817;42.130;24.762;2024-02-16T03:26:18;4.65;;;3.38;;
28629;SDS011;15817;42.130;24.762;2024-02-16T03:28:47;4.72;;;3.60;;
28629;SDS011;15817;42.130;24.762;2024-02-16T03:31:17;6.03;;;3.63;;
28629;SDS011;15817;42.130;24.762;2024-02-16T03:33:47;6.45;;;3.47;;
28629;SDS011;15817;42.130;24.762;2024-02-16T03:36:16;4.88;;;3.20;;
28629;SDS011;15817;42.130;24.762;2024-02-16T03:38:45;5.03;;;3.58;;
28629;SDS011;15817;42.130;24.762;2024-02-16T03:41:24;7.78;;;3.72;;
28629;SDS011;15817;42.130;24.762;2024-02-16T03:43:52;8.95;;;3.70;;
28629;SDS011;15817;42.130;24.762;2024-02-16T03:46:25;5.10;;;3.30;;
28629;SDS011;15817;42.130;24.762;2024-02-16T03:48:52;4.90;;;3.45;;
28629;SDS011;15817;42.130;24.762;2024-02-16T03:51:18;6.47;;;3.72;;
28629;SDS011;15817;42.130;24.762;2024-02-16T03:53:51;5.18;;;3.88;;
28629;SDS011;15817;42.130;24.762;2024-02-16T03:56:18;5.75;;;3.80;;
28629;SDS011;15817;42.130;24.762;2024-02-16T03:58:46;6.68;;;4.25;;
28629;SDS011;15817;42.130;24.762;2024-02-16T04:01:17;9.07;;;3.55;;
28629;SDS011;15817;42.130;24.762;2024-02-16T04:03:43;7.55;;;3.42;;
28629;SDS011;15817;42.130;24.762;2024-02-16T04:06:09;6.18;;;3.88;;
28629;SDS011;15817;42.130;24.762;2024-02-16T04:08:38;6.25;;;3.38;;
28629;SDS011;15817;42.130;24.762;2024-02-16T04:14:19;6.20;;;4.05;;
28629;SDS011;15817;42.130;24.762;2024-02-16T04:16:46;8.60;;;4.50;;
28629;SDS011;15817;42.130;24.762;2024-02-16T04:19:14;10.98;;;4.90;;
28629;SDS011;15817;42.130;24.762;2024-02-16T04:21:43;10.77;;;4.00;;
28629;SDS011;15817;42.130;24.762;2024-02-16T04:24:11;6.50;;;3.78;;
28629;SDS011;15817;42.130;24.762;2024-02-16T04:26:40;9.65;;;4.22;;
28629;SDS011;15817;42.130;24.762;2024-02-16T04:29:08;5.40;;;3.85;;
28629;SDS011;15817;42.130;24.762;2024-02-16T04:31:43;6.30;;;3.95;;
28629;SDS011;15817;42.130;24.762;2024-02-16T04:34:11;6.30;;;3.78;;
28629;SDS011;15817;42.130;24.762;2024-02-16T04:36:39;7.07;;;3.70;;
28629;SDS011;15817;42.130;24.762;2024-02-16T04:39:05;5.10;;;3.38;;
28629;SDS011;15817;42.130;24.762;2024-02-16T04:41:33;4.18;;;3.38;;
28629;SDS011;15817;42.130;24.762;2024-02-16T04:44:02;7.43;;;3.53;;
28629;SDS011;15817;42.130;24.762;2024-02-16T04:46:28;6.47;;;4.15;;
28629;SDS011;15817;42.130;24.762;2024-02-16T04:49:03;10.10;;;3.53;;
28629;SDS011;15817;42.130;24.762;2024-02-16T04:51:29;4.72;;;3.67;;
28629;SDS011;15817;42.130;24.762;2024-02-16T04:53:57;5.32;;;3.53;;
28629;SDS011;15817;42.130;24.762;2024-02-16T04:56:23;8.75;;;3.80;;
28629;SDS011;15817;42.130;24.762;2024-02-16T04:58:57;5.78;;;3.47;;
28629;SDS011;15817;42.130;24.762;2024-02-16T05:01:25;18.77;;;4.97;;
28629;SDS011;15817;42.130;24.762;2024-02-16T05:03:54;5.82;;;3.85;;
28629;SDS011;15817;42.130;24.762;2024-02-16T05:06:20;9.40;;;3.50;;
28629;SDS011;15817;42.130;24.762;2024-02-16T05:08:48;5.57;;;3.70;;
28629;SDS011;15817;42.130;24.762;2024-02-16T05:11:14;6.85;;;4.28;;
28629;SDS011;15817;42.130;24.762;2024-02-16T05:13:47;6.82;;;3.92;;
28629;SDS011;15817;42.130;24.762;2024-02-16T05:16:28;8.63;;;4.03;;
28629;SDS011;15817;42.130;24.762;2024-02-16T05:18:57;6.20;;;4.15;;
28629;SDS011;15817;42.130;24.762;2024-02-16T05:21:39;7.10;;;3.88;;
28629;SDS011;15817;42.130;24.762;2024-02-16T05:24:05;6.97;;;3.85;;
28629;SDS011;15817;42.130;24.762;2024-02-16T05:26:31;12.05;;;5.18;;
28629;SDS011;15817;42.130;24.762;2024-02-16T05:28:59;7.90;;;3.70;;
28629;SDS011;15817;42.130;24.762;2024-02-16T05:31:36;10.77;;;4.75;;
28629;SDS011;15817;42.130;24.762;2024-02-16T05:34:05;10.75;;;4.63;;
28629;SDS011;15817;42.130;24.762;2024-02-16T05:36:31;6.35;;;3.33;;
28629;SDS011;15817;42.130;24.762;2024-02-16T05:39:03;8.45;;;5.13;;
28629;SDS011;15817;42.130;24.762;2024-02-16T05:41:50;9.23;;;4.30;;
28629;SDS011;15817;42.130;24.762;2024-02-16T05:44:23;7.65;;;3.83;;
28629;SDS011;15817;42.130;24.762;2024-02-16T05:47:01;5.53;;;3.63;;
28629;SDS011;15817;42.130;24.762;2024-02-16T05:49:37;7.43;;;4.03;;
28629;SDS011;15817;42.130;24.762;2024-02-16T05:52:05;18.30;;;7.68;;
28629;SDS011;15817;42.130;24.762;2024-02-16T05:54:46;9.82;;;4.90;;
28629;SDS011;15817;42.130;24.762;2024-02-16T05:57:16;6.40;;;4.13;;
28629;SDS011;15817;42.130;24.762;2024-02-16T05:59:52;6.10;;;4.25;;
28629;SDS011;15817;42.130;24.762;2024-02-16T06:02:18;8.10;;;4.50;;
28629;SDS011;15817;42.130;24.762;2024-02-16T06:04:47;7.90;;;4.05;;
28629;SDS011;15817;42.130;24.762;2024-02-16T06:07:13;8.60;;;4.07;;
28629;SDS011;15817;42.130;24.762;2024-02-16T06:09:42;9.50;;;4.07;;
28629;SDS011;15817;42.130;24.762;2024-02-16T06:12:13;8.65;;;4.45;;
28629;SDS011;15817;42.130;24.762;2024-02-16T06:14:44;6.40;;;4.35;;
28629;SDS011;15817;42.130;24.762;2024-02-16T06:17:10;10.98;;;4.25;;
28629;SDS011;15817;42.130;24.762;2024-02-16T06:19:42;7.03;;;3.90;;
28629;SDS011;15817;42.130;24.762;2024-02-16T06:22:18;12.65;;;4.22;;
28629;SDS011;15817;42.130;24.762;2024-02-16T06:24:47;4.97;;;3.90;;
28629;SDS011;15817;42.130;24.762;2024-02-16T06:27:15;13.48;;;4.70;;
28629;SDS011;15817;42.130;24.762;2024-02-16T06:29:42;10.68;;;4.28;;
28629;SDS011;15817;42.130;24.762;2024-02-16T06:32:15;7.20;;;4.55;;
28629;SDS011;15817;42.130;24.762;2024-02-16T06:34:46;12.27;;;4.60;;
28629;SDS011;15817;42.130;24.762;2024-02-16T06:37:14;13.15;;;4.10;;
28629;SDS011;15817;42.130;24.762;2024-02-16T06:39:40;7.95;;;4.03;;
28629;SDS011;15817;42.130;24.762;2024-02-16T06:42:06;11.55;;;4.45;;
28629;SDS011;15817;42.130;24.762;2024-02-16T06:44:32;7.60;;;4.10;;
28629;SDS011;15817;42.130;24.762;2024-02-16T06:47:11;6.88;;;4.10;;
28629;SDS011;15817;42.130;24.762;2024-02-16T06:49:42;10.48;;;4.07;;
28629;SDS011;15817;42.130;24.762;2024-02-16T06:52:08;7.68;;;4.10;;
28629;SDS011;15817;42.130;24.762;2024-02-16T06:54:37;18.63;;;5.40;;
28629;SDS011;15817;42.130;24.762;2024-02-16T06:57:04;6.90;;;4.15;;
28629;SDS011;15817;42.130;24.762;2024-02-16T06:59:38;9.02;;;5.05;;
28629;SDS011;15817;42.130;24.762;2024-02-16T07:02:07;8.98;;;5.43;;
28629;SDS011;15817;42.130;24.762;2024-02-16T07:04:34;10.40;;;4.22;;
28629;SDS011;15817;42.130;24.762;2024-02-16T07:07:05;9.57;;;4.15;;
28629;SDS011;15817;42.130;24.762;2024-02-16T07:09:46;7.32;;;4.35;;
28629;SDS011;15817;42.130;24.762;2024-02-16T07:12:28;6.65;;;3.83;;
28629;SDS011;15817;42.130;24.762;2024-02-16T07:15:03;9.75;;;4.75;;
28629;SDS011;15817;42.130;24.762;2024-02-16T07:17:42;8.80;;;4.47;;
28629;SDS011;15817;42.130;24.762;2024-02-16T07:20:21;6.03;;;3.88;;
28629;SDS011;15817;42.130;24.762;2024-02-16T07:22:52;12.68;;;5.78;;
28629;SDS011;15817;42.130;24.762;2024-02-16T07:25:46;12.65;;;4.95;;
28629;SDS011;15817;42.130;24.762;2024-02-16T07:28:14;14.13;;;4.53;;
28629;SDS011;15817;42.130;24.762;2024-02-16T07:30:40;6.30;;;4.13;;
28629;SDS011;15817;42.130;24.762;2024-02-16T07:33:23;8.45;;;4.50;;
28629;SDS011;15817;42.130;24.762;2024-02-16T07:36:05;11.98;;;4.05;;
28629;SDS011;15817;42.130;24.762;2024-02-16T07:38:31;7.95;;;4.03;;
28629;SDS011;15817;42.130;24.762;2024-02-16T07:40:57;12.82;;;5.20;;
28629;SDS011;15817;42.130;24.762;2024-02-16T07:43:30;11.95;;;4.78;;
28629;SDS011;15817;42.130;24.762;2024-02-16T07:45:56;8.30;;;4.30;;
28629;SDS011;15817;42.130;24.762;2024-02-16T07:48:24;10.45;;;4.35;;
28629;SDS011;15817;42.130;24.762;2024-02-16T07:50:50;5.75;;;3.70;;
28629;SDS011;15817;42.130;24.762;2024-02-16T07:53:26;7.00;;;4.45;;
28629;SDS011;15817;42.130;24.762;2024-02-16T07:55:55;8.07;;;4.10;;
28629;SDS011;15817;42.130;24.762;2024-02-16T07:58:26;9.07;;;3.65;;
28629;SDS011;15817;42.130;24.762;2024-02-16T08:01:02;7.72;;;3.75;;
28629;SDS011;15817;42.130;24.762;2024-02-16T08:03:48;8.32;;;3.80;;
28629;SDS011;15817;42.130;24.762;2024-02-16T08:06:19;7.93;;;3.72;;
28629;SDS011;15817;42.130;24.762;2024-02-16T08:08:59;7.57;;;3.55;;
28629;SDS011;15817;42.130;24.762;2024-02-16T08:11:27;13.18;;;3.65;;
28629;SDS011;15817;42.130;24.762;2024-02-16T08:13:53;9.45;;;3.80;;
28629;SDS011;15817;42.130;24.762;2024-02-16T08:16:34;8.23;;;3.72;;
28629;SDS011;15817;42.130;24.762;2024-02-16T08:19:02;8.70;;;3.80;;
28629;SDS011;15817;42.130;24.762;2024-02-16T08:21:35;11.65;;;4.40;;
28629;SDS011;15817;42.130;24.762;2024-02-16T08:24:03;12.57;;;5.93;;
28629;SDS011;15817;42.130;24.762;2024-02-16T08:26:32;7.78;;;4.65;;
28629;SDS011;15817;42.130;24.762;2024-02-16T08:28:58;6.80;;;4.15;;
28629;SDS011;15817;42.130;24.762;2024-02-16T08:31:24;6.15;;;3.60;;
28629;SDS011;15817;42.130;24.762;2024-02-16T08:33:58;7.95;;;3.70;;
28629;SDS011;15817;42.130;24.762;2024-02-16T08:36:26;9.00;;;4.00;;
28629;SDS011;15817;42.130;24.762;2024-02-16T08:38:54;9.75;;;3.83;;
28629;SDS011;15817;42.130;24.762;2024-02-16T08:41:21;11.27;;;5.03;;
28629;SDS011;15817;42.130;24.762;2024-02-16T08:43:50;8.10;;;3.53;;
28629;SDS011;15817;42.130;24.762;2024-02-16T08:46:22;11.68;;;4.07;;
28629;SDS011;15817;42.130;24.762;2024-02-16T08:48:58;4.25;;;3.00;;
28629;SDS011;15817;42.130;24.762;2024-02-16T08:51:25;10.13;;;3.47;;
28629;SDS011;15817;42.130;24.762;2024-02-16T08:57:59;10.05;;;4.07;;
28629;SDS011;15817;42.130;24.762;2024-02-16T09:12:47;7.53;;;3.75;;
28629;SDS011;15817;42.130;24.762;2024-02-16T09:15:38;6.78;;;3.67;;
28629;SDS011;15817;42.130;24.762;2024-02-16T09:44:02;4.25;;;3.50;;
28629;SDS011;15817;42.130;24.762;2024-02-16T09:46:33;5.28;;;3.55;;
28629;SDS011;15817;42.130;24.762;2024-02-16T09:49:06;8.57;;;3.50;;
28629;SDS011;15817;42.130;24.762;2024-02-16T09:51:35;8.52;;;3.40;;
28629;SDS011;15817;42.130;24.762;2024-02-16T09:54:11;16.27;;;3.55;;
28629;SDS011;15817;42.130;24.762;2024-02-16T09:56:37;7.38;;;3.38;;
28629;SDS011;15817;42.130;24.762;2024-02-16T09:59:09;10.00;;;3.35;;
28629;SDS011;15817;42.130;24.762;2024-02-16T10:01:39;9.07;;;2.90;;
28629;SDS011;15817;42.130;24.762;2024-02-16T10:04:10;5.30;;;2.85;;
28629;SDS011;15817;42.130;24.762;2024-02-16T10:07:09;10.65;;;4.18;;
28629;SDS011;15817;42.130;24.762;2024-02-16T10:09:38;6.30;;;3.17;;
28629;SDS011;15817;42.130;24.762;2024-02-16T10:12:17;4.80;;;3.03;;
28629;SDS011;15817;42.130;24.762;2024-02-16T10:17:23;5.47;;;3.47;;
28629;SDS011;15817;42.130;24.762;2024-02-16T10:19:56;4.20;;;2.85;;
28629;SDS011;15817;42.130;24.762;2024-02-16T10:22:27;4.63;;;3.00;;
28629;SDS011;15817;42.130;24.762;2024-02-16T10:25:06;3.78;;;2.75;;
28629;SDS011;15817;42.130;24.762;2024-02-16T10:27:40;2.60;;;2.20;;
28629;SDS011;15817;42.130;24.762;2024-02-16T10:30:11;4.57;;;2.75;;
28629;SDS011;15817;42.130;24.762;2024-02-16T10:32:57;3.45;;;2.00;;
28629;SDS011;15817;42.130;24.762;2024-02-16T10:35:32;3.90;;;1.80;;
28629;SDS011;15817;42.130;24.762;2024-02-16T10:38:12;8.57;;;2.20;;
28629;SDS011;15817;42.130;24.762;2024-02-16T10:40:42;7.80;;;1.85;;
28629;SDS011;15817;42.130;24.762;2024-02-16T10:43:17;3.97;;;2.00;;
28629;SDS011;15817;42.130;24.762;2024-02-16T10:45:52;5.47;;;2.15;;
28629;SDS011;15817;42.130;24.762;2024-02-16T10:48:22;2.70;;;1.90;;
28629;SDS011;15817;42.130;24.762;2024-02-16T10:50:51;3.58;;;2.20;;
28629;SDS011;15817;42.130;24.762;2024-02-16T10:53:26;9.43;;;3.00;;
28629;SDS011;15817;42.130;24.762;2024-02-16T10:56:08;10.73;;;2.38;;
28629;SDS011;15817;42.130;24.762;2024-02-16T10:58:34;3.35;;;2.00;;
28629;SDS011;15817;42.130;24.762;2024-02-16T11:01:10;6.10;;;2.33;;
28629;SDS011;15817;42.130;24.762;2024-02-16T11:03:41;2.75;;;1.70;;
28629;SDS011;15817;42.130;24.762;2024-02-16T11:09:22;7.25;;;2.30;;
28629;SDS011;15817;42.130;24.762;2024-02-16T11:12:06;3.80;;;2.47;;
28629;SDS011;15817;42.130;24.762;2024-02-16T11:14:40;3.13;;;2.28;;
28629;SDS011;15817;42.130;24.762;2024-02-16T11:17:32;4.43;;;1.98;;
28629;SDS011;15817;42.130;24.762;2024-02-16T11:23:35;16.85;;;3.20;;
28629;SDS011;15817;42.130;24.762;2024-02-16T11:26:16;31.10;;;4.70;;
28629;SDS011;15817;42.130;24.762;2024-02-16T11:28:43;4.90;;;3.28;;
28629;SDS011;15817;42.130;24.762;2024-02-16T11:31:13;9.30;;;2.70;;
28629;SDS011;15817;42.130;24.762;2024-02-16T11:33:44;4.75;;;2.45;;
28629;SDS011;15817;42.130;24.762;2024-02-16T11:36:16;2.63;;;1.98;;
28629;SDS011;15817;42.130;24.762;2024-02-16T11:38:44;3.63;;;2.15;;
28629;SDS011;15817;42.130;24.762;2024-02-16T11:41:12;2.08;;;1.88;;
28629;SDS011;15817;42.130;24.762;2024-02-16T11:43:58;4.85;;;2.17;;
28629;SDS011;15817;42.130;24.762;2024-02-16T11:46:27;3.47;;;2.65;;
28629;SDS011;15817;42.130;24.762;2024-02-16T11:49:06;6.75;;;2.38;;
28629;SDS011;15817;42.130;24.762;2024-02-16T11:51:40;18.25;;;2.47;;
28629;SDS011;15817;42.130;24.762;2024-02-16T11:54:16;2.78;;;2.08;;
28629;SDS011;15817;42.130;24.762;2024-02-16T11:56:45;2.05;;;1.80;;
28629;SDS011;15817;42.130;24.762;2024-02-16T11:59:13;3.83;;;1.90;;
28629;SDS011;15817;42.130;24.762;2024-02-16T12:01:56;3.95;;;2.00;;
28629;SDS011;15817;42.130;24.762;2024-02-16T12:04:45;3.35;;;2.05;;
28629;SDS011;15817;42.130;24.762;2024-02-16T12:07:29;3.45;;;1.60;;
28629;SDS011;15817;42.130;24.762;2024-02-16T12:10:19;3.00;;;2.00;;
28629;SDS011;15817;42.130;24.762;2024-02-16T12:12:52;2.22;;;1.80;;
28629;SDS011;15817;42.130;24.762;2024-02-16T12:15:31;4.05;;;2.13;;
28629;SDS011;15817;42.130;24.762;2024-02-16T12:18:00;2.15;;;1.80;;
28629;SDS011;15817;42.130;24.762;2024-02-16T12:21:07;2.90;;;1.75;;
28629;SDS011;15817;42.130;24.762;2024-02-16T12:23:57;4.50;;;1.80;;
28629;SDS011;15817;42.130;24.762;2024-02-16T12:26:23;3.85;;;2.08;;
28629;SDS011;15817;42.130;24.762;2024-02-16T12:29:03;3.22;;;2.17;;
28629;SDS011;15817;42.130;24.762;2024-02-16T12:31:44;2.45;;;1.90;;
28629;SDS011;15817;42.130;24.762;2024-02-16T12:34:33;1.92;;;1.55;;
28629;SDS011;15817;42.130;24.762;2024-02-16T12:37:07;3.90;;;2.00;;
28629;SDS011;15817;42.130;24.762;2024-02-16T12:39:35;2.58;;;2.08;;
28629;SDS011;15817;42.130;24.762;2024-02-16T12:42:01;3.60;;;2.10;;
28629;SDS011;15817;42.130;24.762;2024-02-16T12:45:02;2.67;;;1.90;;
28629;SDS011;15817;42.130;24.762;2024-02-16T12:47:39;3.22;;;2.00;;
28629;SDS011;15817;42.130;24.762;2024-02-16T12:50:21;3.67;;;1.83;;
28629;SDS011;15817;42.130;24.762;2024-02-16T12:53:02;3.03;;;2.10;;
28629;SDS011;15817;42.130;24.762;2024-02-16T12:55:44;12.48;;;3.45;;
28629;SDS011;15817;42.130;24.762;2024-02-16T12:58:29;5.55;;;1.80;;
28629;SDS011;15817;42.130;24.762;2024-02-16T13:01:09;2.22;;;1.90;;
28629;SDS011;15817;42.130;24.762;2024-02-16T13:03:38;4.00;;;1.77;;
28629;SDS011;15817;42.130;24.762;2024-02-16T13:06:20;3.58;;;1.90;;
28629;SDS011;15817;42.130;24.762;2024-02-16T13:09:09;3.00;;;1.65;;
28629;SDS011;15817;42.130;24.762;2024-02-16T13:11:42;2.42;;;1.77;;
28629;SDS011;15817;42.130;24.762;2024-02-16T13:14:28;4.38;;;1.70;;
28629;SDS011;15817;42.130;24.762;2024-02-16T13:17:12;4.88;;;2.08;;
28629;SDS011;15817;42.130;24.762;2024-02-16T13:19:42;3.17;;;2.08;;
28629;SDS011;15817;42.130;24.762;2024-02-16T13:22:11;3.30;;;2.63;;
28629;SDS011;15817;42.130;24.762;2024-02-16T13:24:45;3.17;;;2.13;;
28629;SDS011;15817;42.130;24.762;2024-02-16T13:30:41;3.60;;;2.33;;
28629;SDS011;15817;42.130;24.762;2024-02-16T13:33:58;2.08;;;1.63;;
28629;SDS011;15817;42.130;24.762;2024-02-16T13:40:12;3.55;;;2.42;;
28629;SDS011;15817;42.130;24.762;2024-02-16T13:43:22;3.72;;;1.83;;
28629;SDS011;15817;42.130;24.762;2024-02-16T13:49:04;3.63;;;2.38;;
28629;SDS011;15817;42.130;24.762;2024-02-16T13:51:35;2.88;;;2.10;;
28629;SDS011;15817;42.130;24.762;2024-02-16T13:54:14;3.17;;;2.10;;
28629;SDS011;15817;42.130;24.762;2024-02-16T13:56:43;3.35;;;1.98;;
28629;SDS011;15817;42.130;24.762;2024-02-16T13:59:14;2.63;;;1.80;;
28629;SDS011;15817;42.130;24.762;2024-02-16T14:01:52;2.75;;;2.17;;
28629;SDS011;15817;42.130;24.762;2024-02-16T14:04:21;3.17;;;1.83;;
28629;SDS011;15817;42.130;24.762;2024-02-16T14:07:01;4.15;;;2.03;;
28629;SDS011;15817;42.130;24.762;2024-02-16T14:10:16;8.13;;;2.60;;
28629;SDS011;15817;42.130;24.762;2024-02-16T14:13:21;3.22;;;2.45;;
28629;SDS011;15817;42.130;24.762;2024-02-16T14:19:13;5.97;;;3.30;;
28629;SDS011;15817;42.130;24.762;2024-02-16T14:21:55;3.55;;;2.55;;
28629;SDS011;15817;42.130;24.762;2024-02-16T14:24:37;3.40;;;2.13;;
28629;SDS011;15817;42.130;24.762;2024-02-16T14:27:14;4.07;;;2.30;;
28629;SDS011;15817;42.130;24.762;2024-02-16T14:30:16;3.67;;;2.15;;
28629;SDS011;15817;42.130;24.762;2024-02-16T14:33:20;3.67;;;2.42;;
28629;SDS011;15817;42.130;24.762;2024-02-16T14:35:56;5.97;;;2.08;;
28629;SDS011;15817;42.130;24.762;2024-02-16T14:38:55;4.90;;;2.38;;
28629;SDS011;15817;42.130;24.762;2024-02-16T14:41:30;3.67;;;2.50;;
28629;SDS011;15817;42.130;24.762;2024-02-16T14:44:15;6.13;;;3.47;;
28629;SDS011;15817;42.130;24.762;2024-02-16T14:47:09;4.72;;;3.40;;
28629;SDS011;15817;42.130;24.762;2024-02-16T14:49:40;6.07;;;3.60;;
28629;SDS011;15817;42.130;24.762;2024-02-16T14:52:15;6.72;;;4.10;;
28629;SDS011;15817;42.130;24.762;2024-02-16T14:58:06;5.47;;;2.45;;
28629;SDS011;15817;42.130;24.762;2024-02-16T15:01:11;3.50;;;2.05;;
28629;SDS011;15817;42.130;24.762;2024-02-16T15:04:00;2.60;;;2.15;;
28629;SDS011;15817;42.130;24.762;2024-02-16T15:06:30;3.88;;;2.33;;
28629;SDS011;15817;42.130;24.762;2024-02-16T15:09:03;3.35;;;2.38;;
28629;SDS011;15817;42.130;24.762;2024-02-16T15:11:33;3.22;;;2.25;;
28629;SDS011;15817;42.130;24.762;2024-02-16T15:14:28;3.53;;;2.95;;
28629;SDS011;15817;42.130;24.762;2024-02-16T15:16:57;3.92;;;2.92;;
28629;SDS011;15817;42.130;24.762;2024-02-16T15:19:33;2.75;;;2.42;;
28629;SDS011;15817;42.130;24.762;2024-02-16T15:22:26;4.38;;;2.83;;
28629;SDS011;15817;42.130;24.762;2024-02-16T15:25:32;4.60;;;2.78;;
28629;SDS011;15817;42.130;24.762;2024-02-16T15:28:07;3.42;;;2.45;;
28629;SDS011;15817;42.130;24.762;2024-02-16T15:30:49;7.78;;;3.28;;
28629;SDS011;15817;42.130;24.762;2024-02-16T15:33:34;6.70;;;3.83;;
28629;SDS011;15817;42.130;24.762;2024-02-16T15:36:09;4.32;;;2.47;;
28629;SDS011;15817;42.130;24.762;2024-02-16T15:38:57;3.47;;;2.60;;
28629;SDS011;15817;42.130;24.762;2024-02-16T15:41:36;3.63;;;2.78;;
28629;SDS011;15817;42.130;24.762;2024-02-16T15:44:14;4.07;;;3.15;;
28629;SDS011;15817;42.130;24.762;2024-02-16T15:47:04;6.28;;;3.10;;
28629;SDS011;15817;42.130;24.762;2024-02-16T15:49:52;5.93;;;2.67;;
28629;SDS011;15817;42.130;24.762;2024-02-16T15:52:49;4.15;;;2.80;;
28629;SDS011;15817;42.130;24.762;2024-02-16T15:55:32;3.45;;;2.70;;
28629;SDS011;15817;42.130;24.762;2024-02-16T16:02:03;4.20;;;3.20;;
28629;SDS011;15817;42.130;24.762;2024-02-16T16:04:29;7.00;;;3.15;;
28629;SDS011;15817;42.130;24.762;2024-02-16T16:07:03;7.88;;;3.78;;
28629;SDS011;15817;42.130;24.762;2024-02-16T16:09:51;5.68;;;3.55;;
28629;SDS011;15817;42.130;24.762;2024-02-16T16:12:45;3.30;;;2.55;;
28629;SDS011;15817;42.130;24.762;2024-02-16T16:15:19;5.57;;;3.30;;
28629;SDS011;15817;42.130;24.762;2024-02-16T16:17:54;9.90;;;4.05;;
28629;SDS011;15817;42.130;24.762;2024-02-16T16:20:53;7.25;;;4.35;;
28629;SDS011;15817;42.130;24.762;2024-02-16T16:23:33;7.10;;;4.28;;
28629;SDS011;15817;42.130;24.762;2024-02-16T16:26:05;5.78;;;3.90;;
28629;SDS011;15817;42.130;24.762;2024-02-16T16:28:43;4.78;;;3.20;;
28629;SDS011;15817;42.130;24.762;2024-02-16T16:31:18;7.30;;;3.05;;
28629;SDS011;15817;42.130;24.762;2024-02-16T16:33:57;6.90;;;3.80;;
28629;SDS011;15817;42.130;24.762;2024-02-16T16:36:26;5.68;;;4.15;;